Time;durP1;ratioP1;P1;durP2;ratioP2;P2;SDS_P1;SDS_P2;PMS_P1;PMS_P2;Temp;Humidity;BMP_temperature;BMP_pressure;BME280_temperature;BME280_humidity;BME280_pressure;Samples;Min_cycle;Max_cycle;Signal;HPM_P1;HPM_P2
2023/02/28 00:02:10;;;;;;;;;;;;;;;6.00;42.80;101306.94;5061160;28;20387;-73
2023/02/28 00:05:00;;;;;;;;;;;;;;;5.84;43.27;101303.38;5059022;28;19913;-73
2023/02/28 00:07:50;;;;;;;;;;;;;;;5.95;42.61;101312.34;5063511;28;19917;-73
2023/02/28 00:10:40;;;;;;;;;;;;;;;5.83;42.97;101309.88;5061340;28;19921;-73
2023/02/28 00:13:32;;;;;;;;;;;;;;;5.76;42.74;101314.72;5058043;28;19917;-73
2023/02/28 00:16:22;;;;;;;;;;;;;;;5.96;42.62;101306.69;5062092;28;19913;-73
2023/02/28 00:19:13;;;;;;;;;;;;;;;5.76;43.37;101311.22;5060776;28;19913;-73
2023/02/28 00:22:05;;;;;;;;;;;;;;;5.69;42.89;101316.09;5062929;28;19913;-73
2023/02/28 00:24:57;;;;;;;;;;;;;;;5.68;43.10;101326.06;5060490;28;19913;-73
2023/02/28 00:27:44;;;;;;;;;;;;;;;5.70;42.68;101315.78;5058695;28;19912;-72
2023/02/28 00:30:34;;;;;;;;;;;;;;;5.71;42.98;101324.69;5057375;28;19917;-73
2023/02/28 00:33:27;;;;;;;;;;;;;;;5.75;42.80;101321.19;5057688;28;19912;-73
2023/02/28 00:36:17;;;;;;;;;;;;;;;5.55;42.87;101327.38;5056217;28;19920;-73
2023/02/28 00:39:09;;;;;;;;;;;;;;;5.58;42.77;101334.13;5037157;28;19913;-73
2023/02/28 00:41:58;;;;;;;;;;;;;;;5.63;43.21;101336.84;5039028;28;19913;-73
2023/02/28 00:44:50;;;;;;;;;;;;;;;5.83;42.18;101336.88;5037099;28;20111;-72
2023/02/28 00:47:40;;;;;;;;;;;;;;;5.68;42.37;101331.47;5048530;28;19916;-73
2023/02/28 00:50:29;;;;;;;;;;;;;;;5.63;42.95;101339.53;5056573;28;19917;-73
2023/02/28 00:53:21;;;;;;;;;;;;;;;5.51;43.31;101341.66;5057259;28;19916;-73
2023/02/28 00:56:11;;;;;;;;;;;;;;;5.54;43.21;101338.41;5058782;28;19912;-73
2023/02/28 00:59:03;;;;;;;;;;;;;;;5.50;43.14;101340.03;5061049;28;19916;-73
2023/02/28 01:01:55;;;;;;;;;;;;;;;5.44;43.31;101343.78;5056075;28;19913;-73
2023/02/28 01:04:47;;;;;;;;;;;;;;;5.54;42.91;101343.81;5056288;28;19913;-73
2023/02/28 01:07:38;;;;;;;;;;;;;;;5.40;43.02;101346.22;5056370;28;19916;-73
2023/02/28 01:10:31;;;;;;;;;;;;;;;5.58;42.98;101350.31;5055552;28;19916;-73
2023/02/28 01:13:23;;;;;;;;;;;;;;;5.45;43.02;101353.50;5056992;28;19916;-72
2023/02/28 01:16:15;;;;;;;;;;;;;;;5.42;43.32;101354.84;5060093;28;20371;-72
2023/02/28 01:19:03;;;;;;;;;;;;;;;5.42;42.99;101349.47;5058570;28;19913;-72
2023/02/28 01:21:55;;;;;;;;;;;;;;;5.60;43.08;101353.53;5055954;28;19913;-72
2023/02/28 01:24:47;;;;;;;;;;;;;;;5.55;42.60;101350.84;5058723;28;20371;-72
2023/02/28 01:27:39;;;;;;;;;;;;;;;5.41;43.25;101344.31;5050701;28;19913;-72
2023/02/28 01:30:31;;;;;;;;;;;;;;;5.36;42.93;101345.13;5055966;28;19917;-74
2023/02/28 01:33:23;;;;;;;;;;;;;;;5.23;43.28;101336.72;5048173;28;19916;-72
2023/02/28 01:36:12;;;;;;;;;;;;;;;5.14;43.91;101339.09;5057949;28;19916;-73
2023/02/28 01:39:05;;;;;;;;;;;;;;;5.09;43.83;101347.97;5053202;28;19916;-73
2023/02/28 01:41:56;;;;;;;;;;;;;;;5.10;44.21;101340.72;5059421;28;19912;-73
2023/02/28 01:45:02;;;;;;;;;;;;;;;5.10;43.99;101352.31;5063014;28;19912;-72
2023/02/28 01:47:54;;;;;;;;;;;;;;;5.09;43.63;101356.06;5062023;28;19913;-73
2023/02/28 01:50:47;;;;;;;;;;;;;;;5.13;43.69;101350.94;5056352;28;19917;-73
2023/02/28 01:53:41;;;;;;;;;;;;;;;5.06;43.70;101351.22;5057386;28;19917;-73
2023/02/28 01:56:36;;;;;;;;;;;;;;;5.07;43.75;101352.84;5056678;28;19917;-74
2023/02/28 01:59:49;;;;;;;;;;;;;;;5.11;43.66;101347.72;5055075;28;19913;-73
2023/02/28 02:02:41;;;;;;;;;;;;;;;5.01;44.52;101343.09;5060746;28;19912;-73
2023/02/28 02:05:34;;;;;;;;;;;;;;;5.10;44.22;101332.63;5059690;28;19913;-73
2023/02/28 02:08:27;;;;;;;;;;;;;;;5.30;43.53;101334.59;5054424;28;19913;-73
2023/02/28 02:11:19;;;;;;;;;;;;;;;5.24;43.43;101331.06;5058202;28;19917;-74
2023/02/28 02:14:10;;;;;;;;;;;;;;;5.16;43.57;101337.78;5056295;28;19912;-73
2023/02/28 02:17:18;;;;;;;;;;;;;;;5.27;43.80;101340.50;5055340;28;19912;-73
2023/02/28 02:20:27;;;;;;;;;;;;;;;5.18;43.03;101336.72;5060285;28;19913;-74
2023/02/28 02:23:17;;;;;;;;;;;;;;;5.24;42.96;101341.03;5062374;28;19912;-73
2023/02/28 02:26:23;;;;;;;;;;;;;;;5.25;43.75;101329.97;5064832;28;19913;-73
2023/02/28 02:29:28;;;;;;;;;;;;;;;5.43;44.23;101334.91;5066249;28;19912;-74
2023/02/28 02:32:19;;;;;;;;;;;;;;;5.28;43.07;101325.97;5054287;28;19917;-73
2023/02/28 02:35:18;;;;;;;;;;;;;;;5.36;43.60;101328.94;5050826;28;19913;-73
2023/02/28 02:38:20;;;;;;;;;;;;;;;5.29;43.47;101328.38;5062043;28;20372;-73
2023/02/28 02:41:28;;;;;;;;;;;;;;;5.30;43.20;101339.97;5057566;28;19912;-73
2023/02/28 02:44:42;;;;;;;;;;;;;;;5.34;43.27;101330.28;5063441;28;19913;-74
2023/02/28 02:47:35;;;;;;;;;;;;;;;5.38;43.31;101328.69;5058908;28;19917;-73
2023/02/28 02:50:29;;;;;;;;;;;;;;;5.42;43.34;101327.06;5072210;28;19924;-74
2023/02/28 02:53:21;;;;;;;;;;;;;;;5.72;42.81;101327.16;5052034;28;20303;-74
2023/02/28 02:56:08;;;;;;;;;;;;;;;5.76;42.28;101322.81;5059620;28;19924;-74
2023/02/28 02:58:59;;;;;;;;;;;;;;;5.74;42.46;101324.97;5063681;28;19912;-74
2023/02/28 03:01:52;;;;;;;;;;;;;;;5.83;42.06;101326.09;5060382;28;19913;-74
2023/02/28 03:04:51;;;;;;;;;;;;;;;5.73;42.58;101327.94;5053428;28;19913;-74
2023/02/28 03:07:41;;;;;;;;;;;;;;;5.55;43.02;101340.03;5054209;28;19913;-74
2023/02/28 03:10:41;;;;;;;;;;;;;;;5.46;43.06;101333.56;5057627;28;20299;-74
2023/02/28 03:13:47;;;;;;;;;;;;;;;5.46;43.17;101334.38;5052579;28;19912;-74
2023/02/28 03:16:55;;;;;;;;;;;;;;;5.53;43.13;101331.44;5054070;28;19916;-74
2023/02/28 03:19:55;;;;;;;;;;;;;;;5.49;43.15;101333.00;5061849;28;20303;-73
2023/02/28 03:22:54;;;;;;;;;;;;;;;5.55;43.10;101331.94;5059836;28;19912;-74
2023/02/28 03:25:44;;;;;;;;;;;;;;;5.57;42.76;101330.63;5063918;28;20314;-74
2023/02/28 03:28:39;;;;;;;;;;;;;;;5.44;43.29;101335.69;5062080;28;19912;-74
2023/02/28 03:31:39;;;;;;;;;;;;;;;5.36;43.28;101339.72;5058849;28;19917;-73
2023/02/28 03:34:32;;;;;;;;;;;;;;;5.40;43.46;101334.63;5062318;28;20372;-74
2023/02/28 03:37:23;;;;;;;;;;;;;;;5.57;42.52;101337.91;5061017;28;19913;-74
2023/02/28 03:40:17;;;;;;;;;;;;;;;5.33;43.32;101340.28;5064083;28;19912;-74
2023/02/28 03:43:12;;;;;;;;;;;;;;;5.28;43.40;101334.06;5060720;28;20307;-74
2023/02/28 03:46:06;;;;;;;;;;;;;;;5.35;43.15;101337.28;5058868;28;19913;-73
2023/02/28 03:49:02;;;;;;;;;;;;;;;5.24;43.65;101335.63;5061719;28;19912;-74
2023/02/28 03:51:56;;;;;;;;;;;;;;;5.38;43.44;101343.00;5055228;28;19916;-74
2023/02/28 03:54:50;;;;;;;;;;;;;;;5.31;43.39;101341.59;5056901;28;19913;-73
2023/02/28 03:57:50;;;;;;;;;;;;;;;5.21;43.49;101342.38;5062018;28;19912;-75
2023/02/28 04:00:45;;;;;;;;;;;;;;;5.10;43.72;101349.59;5058362;28;19913;-74
2023/02/28 04:03:35;;;;;;;;;;;;;;;5.09;44.30;101350.69;5058919;28;19924;-74
2023/02/28 04:06:26;;;;;;;;;;;;;;;5.21;44.14;101352.34;5038034;28;19913;-74
2023/02/28 04:09:18;;;;;;;;;;;;;;;5.40;44.27;101356.19;5062498;28;19913;-74
2023/02/28 04:12:10;;;;;;;;;;;;;;;5.36;44.18;101361.31;5061037;28;20292;-75
2023/02/28 04:15:02;;;;;;;;;;;;;;;5.38;44.11;101363.75;5058882;28;19912;-74
2023/02/28 04:17:54;;;;;;;;;;;;;;;4.78;45.62;101365.06;5061725;28;19912;-74
2023/02/28 04:20:46;;;;;;;;;;;;;;;4.94;45.31;101374.03;5059912;28;19912;-75
2023/02/28 04:23:38;;;;;;;;;;;;;;;5.26;44.81;101376.63;5038098;28;19913;-75
2023/02/28 04:26:28;;;;;;;;;;;;;;;5.00;45.40;101370.31;5041448;28;19913;-75
2023/02/28 04:29:20;;;;;;;;;;;;;;;4.85;45.55;101373.75;5057051;28;19912;-75
2023/02/28 04:32:11;;;;;;;;;;;;;;;4.72;45.91;101379.59;5059904;28;19917;-74
2023/02/28 04:35:03;;;;;;;;;;;;;;;4.67;45.93;101376.88;5060331;28;19916;-74
2023/02/28 04:37:55;;;;;;;;;;;;;;;4.60;45.97;101368.19;5057463;28;19913;-74
2023/02/28 04:40:47;;;;;;;;;;;;;;;4.57;46.04;101369.50;5061112;28;19919;-74
2023/02/28 04:43:37;;;;;;;;;;;;;;;4.50;46.28;101370.81;5056639;28;19912;-74
2023/02/28 04:46:29;;;;;;;;;;;;;;;4.55;46.02;101371.66;5056809;28;19913;-75
2023/02/28 04:49:22;;;;;;;;;;;;;;;4.51;46.22;101369.75;5060231;28;19912;-74
2023/02/28 04:52:14;;;;;;;;;;;;;;;4.45;46.40;101363.50;5057115;28;19920;-75
2023/02/28 04:55:06;;;;;;;;;;;;;;;4.51;46.53;101359.78;5061226;28;19912;-74
2023/02/28 04:57:58;;;;;;;;;;;;;;;4.55;46.54;101365.47;5058906;28;19913;-74
2023/02/28 05:00:50;;;;;;;;;;;;;;;4.61;46.23;101364.44;5056964;28;19912;-73
2023/02/28 05:03:45;;;;;;;;;;;;;;;4.73;45.96;101371.22;5056131;28;19912;-73
2023/02/28 05:06:37;;;;;;;;;;;;;;;4.70;46.19;101369.06;5057759;28;19912;-74
2023/02/28 05:09:29;;;;;;;;;;;;;;;4.69;46.11;101364.75;5055477;28;19913;-74
2023/02/28 05:12:21;;;;;;;;;;;;;;;4.74;45.73;101363.97;5058750;28;19917;-73
2023/02/28 05:15:14;;;;;;;;;;;;;;;4.76;45.87;101367.22;5057178;28;19912;-73
2023/02/28 05:18:06;;;;;;;;;;;;;;;4.99;45.47;101366.81;5060443;28;19917;-73
2023/02/28 05:20:58;;;;;;;;;;;;;;;5.26;45.06;101372.06;5057981;28;20292;-74
2023/02/28 05:23:50;;;;;;;;;;;;;;;5.56;44.11;101371.34;5055478;28;20287;-74
2023/02/28 05:26:42;;;;;;;;;;;;;;;5.58;43.56;101375.41;5055141;28;19913;-74
2023/02/28 05:29:34;;;;;;;;;;;;;;;5.69;43.81;101380.84;5059272;28;19913;-74
2023/02/28 05:32:25;;;;;;;;;;;;;;;5.94;43.02;101378.22;5055722;28;19916;-74
2023/02/28 05:35:14;;;;;;;;;;;;;;;6.04;42.59;101372.03;5048557;28;19916;-74
2023/02/28 05:38:01;;;;;;;;;;;;;;;6.03;41.98;101370.38;5057297;28;19916;-74
2023/02/28 05:40:53;;;;;;;;;;;;;;;6.06;42.16;101370.66;5052681;28;19913;-74
2023/02/28 05:43:45;;;;;;;;;;;;;;;5.91;42.05;101374.16;5053826;28;19917;-74
2023/02/28 05:46:37;;;;;;;;;;;;;;;5.53;43.08;101377.28;5056574;28;19912;-74
2023/02/28 05:49:29;;;;;;;;;;;;;;;5.71;43.28;101375.97;5054926;28;19913;-74
2023/02/28 05:52:19;;;;;;;;;;;;;;;5.72;42.65;101373.00;5057853;28;19917;-74
2023/02/28 05:55:11;;;;;;;;;;;;;;;5.80;42.34;101383.28;5056853;28;19913;-74
2023/02/28 05:58:03;;;;;;;;;;;;;;;6.15;41.80;101384.41;5054227;28;19912;-74
2023/02/28 06:00:52;;;;;;;;;;;;;;;5.99;41.86;101378.22;5051235;28;19912;-74
2023/02/28 06:03:42;;;;;;;;;;;;;;;6.08;42.16;101390.09;5045547;28;19913;-74
2023/02/28 06:06:33;;;;;;;;;;;;;;;6.05;41.94;101387.13;5054584;28;19913;-74
2023/02/28 06:09:25;;;;;;;;;;;;;;;6.13;41.40;101381.19;5056303;28;19913;-74
2023/02/28 06:12:15;;;;;;;;;;;;;;;6.05;41.49;101393.31;5048547;28;20338;-74
2023/02/28 06:15:06;;;;;;;;;;;;;;;6.14;41.52;101401.72;5053797;28;19913;-75
2023/02/28 06:17:56;;;;;;;;;;;;;;;6.08;41.47;101405.50;5055716;28;19912;-74
2023/02/28 06:20:54;;;;;;;;;;;;;;;6.05;42.29;101406.00;5053781;28;19912;-74
2023/02/28 06:23:46;;;;;;;;;;;;;;;5.91;42.14;101406.53;5052462;28;19912;-74
2023/02/28 06:26:38;;;;;;;;;;;;;;;5.88;42.88;101412.47;5055042;28;19916;-74
2023/02/28 06:29:29;;;;;;;;;;;;;;;5.91;42.40;101411.94;5059479;28;19920;-74
2023/02/28 06:32:21;;;;;;;;;;;;;;;6.07;42.00;101412.78;5056006;28;19916;-74
2023/02/28 06:35:13;;;;;;;;;;;;;;;6.36;41.63;101413.06;5050334;28;19917;-74
2023/02/28 06:38:03;;;;;;;;;;;;;;;6.42;41.52;101417.38;5059011;28;19913;-74
2023/02/28 06:40:56;;;;;;;;;;;;;;;6.49;42.35;101417.94;5057140;28;19912;-74
2023/02/28 06:43:48;;;;;;;;;;;;;;;6.42;41.73;101423.59;5053753;28;19912;-74
2023/02/28 06:46:40;;;;;;;;;;;;;;;6.46;41.24;101418.47;5058940;28;19913;-74
2023/02/28 06:49:32;;;;;;;;;;;;;;;6.40;41.32;101419.53;5053917;28;20388;-74
2023/02/28 06:52:21;;;;;;;;;;;;;;;6.40;42.14;101422.25;5050968;28;19917;-74
2023/02/28 06:55:13;;;;;;;;;;;;;;;6.40;41.73;101435.75;5044714;28;19920;-74
2023/02/28 06:58:05;;;;;;;;;;;;;;;6.38;42.05;101435.22;5052070;28;20295;-74
2023/02/28 07:00:57;;;;;;;;;;;;;;;7.01;45.41;101438.44;5057313;28;19913;-77
2023/02/28 07:03:49;;;;;;;;;;;;;;;8.31;44.80;101428.09;5057808;28;19912;-77
2023/02/28 07:06:40;;;;;;;;;;;;;;;8.66;40.80;101426.19;5058380;28;19913;-77
2023/02/28 07:09:30;;;;;;;;;;;;;;;8.83;39.39;101437.44;5061078;28;19912;-77
2023/02/28 07:12:22;;;;;;;;;;;;;;;8.65;39.69;101430.78;5062529;28;19916;-76
2023/02/28 07:15:11;;;;;;;;;;;;;;;8.34;38.89;101441.06;5055729;28;20829;-74
2023/02/28 07:18:04;;;;;;;;;;;;;;;7.45;39.18;101431.25;5057987;28;19917;-73
2023/02/28 07:20:53;;;;;;;;;;;;;;;7.27;39.60;101438.06;5055101;28;20371;-74
2023/02/28 07:23:45;;;;;;;;;;;;;;;7.02;39.80;101437.31;5054893;28;20303;-73
2023/02/28 07:26:37;;;;;;;;;;;;;;;6.83;40.55;101434.38;5060748;28;19917;-74
2023/02/28 07:29:29;;;;;;;;;;;;;;;6.89;40.49;101441.41;5058158;28;20291;-73
2023/02/28 07:32:19;;;;;;;;;;;;;;;6.77;40.74;101449.00;5060921;28;19917;-74
2023/02/28 07:35:11;;;;;;;;;;;;;;;6.90;40.44;101445.75;5050891;28;19912;-74
2023/02/28 07:38:03;;;;;;;;;;;;;;;7.00;40.70;101447.63;5056908;28;19913;-74
2023/02/28 07:40:55;;;;;;;;;;;;;;;7.02;40.80;101448.13;5061230;28;19913;-73
2023/02/28 07:43:47;;;;;;;;;;;;;;;7.00;40.67;101443.03;5056937;28;20303;-74
2023/02/28 07:46:39;;;;;;;;;;;;;;;6.70;40.53;101440.38;5061844;28;19913;-73
2023/02/28 07:49:31;;;;;;;;;;;;;;;6.63;40.70;101439.81;5061389;28;20292;-74
2023/02/28 07:52:23;;;;;;;;;;;;;;;6.66;40.61;101428.44;5056619;28;19917;-74
2023/02/28 07:55:15;;;;;;;;;;;;;;;6.73;40.12;101437.91;5060139;28;19913;-74
2023/02/28 07:58:05;;;;;;;;;;;;;;;6.77;40.02;101441.69;5053318;28;19913;-74
2023/02/28 08:00:57;;;;;;;;;;;;;;;6.82;40.38;101443.56;5056798;28;19913;-74
2023/02/28 08:03:49;;;;;;;;;;;;;;;6.96;41.11;101446.56;5051346;28;20292;-74
2023/02/28 08:06:41;;;;;;;;;;;;;;;6.97;40.78;101442.75;5057170;28;20311;-74
2023/02/28 08:09:33;;;;;;;;;;;;;;;7.06;40.38;101449.25;5061500;28;19913;-74
2023/02/28 08:12:26;;;;;;;;;;;;;;;7.16;39.90;101438.41;5057942;28;19917;-74
2023/02/28 08:15:17;;;;;;;;;;;;;;;7.22;39.34;101443.50;5057231;28;20375;-74
2023/02/28 08:18:09;;;;;;;;;;;;;;;7.23;40.53;101444.31;5060775;28;19913;-74
2023/02/28 08:21:01;;;;;;;;;;;;;;;7.30;39.65;101444.84;5046009;28;19912;-75
2023/02/28 08:23:53;;;;;;;;;;;;;;;7.44;39.34;101440.47;5047200;28;19912;-74
2023/02/28 08:26:40;;;;;;;;;;;;;;;7.32;38.63;101442.66;5055698;28;19912;-74
2023/02/28 08:29:32;;;;;;;;;;;;;;;7.34;39.68;101448.63;5051778;28;19913;-73
2023/02/28 08:32:22;;;;;;;;;;;;;;;7.39;38.71;101442.38;5053436;28;19921;-73
2023/02/28 08:35:13;;;;;;;;;;;;;;;7.59;38.97;101447.72;5043361;28;19913;-73
2023/02/28 08:38:05;;;;;;;;;;;;;;;7.63;39.01;101449.56;5049396;28;20300;-73
2023/02/28 08:41:04;;;;;;;;;;;;;;;7.57;38.33;101450.69;5053069;28;20315;-73
2023/02/28 08:43:54;;;;;;;;;;;;;;;7.76;38.28;101453.59;5056576;28;19913;-74
2023/02/28 08:46:41;;;;;;;;;;;;;;;7.81;38.23;101452.75;5047830;28;19920;-73
2023/02/28 08:49:33;;;;;;;;;;;;;;;7.87;38.70;101457.06;5052654;28;19912;-73
2023/02/28 08:52:25;;;;;;;;;;;;;;;7.56;38.51;101457.19;5052809;28;19920;-74
2023/02/28 08:55:16;;;;;;;;;;;;;;;7.74;39.07;101461.97;5053985;28;19912;-73
2023/02/28 08:58:08;;;;;;;;;;;;;;;7.82;38.92;101460.59;5055593;28;19913;-74
2023/02/28 09:01:00;;;;;;;;;;;;;;;7.85;38.38;101457.34;5048022;28;20387;-74
2023/02/28 09:03:52;;;;;;;;;;;;;;;7.74;38.15;101461.16;5041190;28;19912;-75
2023/02/28 09:06:44;;;;;;;;;;;;;;;7.72;38.81;101464.16;5043870;28;20392;-73
2023/02/28 09:09:36;;;;;;;;;;;;;;;7.95;37.78;101464.59;5047234;28;19921;-74
2023/02/28 09:12:28;;;;;;;;;;;;;;;8.11;38.45;101455.28;5048501;28;19916;-73
2023/02/28 09:15:20;;;;;;;;;;;;;;;8.25;37.62;101463.59;5049827;28;20379;-73
2023/02/28 09:18:12;;;;;;;;;;;;;;;8.31;37.05;101471.44;5052103;28;19913;-73
2023/02/28 09:21:04;;;;;;;;;;;;;;;8.34;37.01;101462.75;5057323;28;19916;-74
2023/02/28 09:23:56;;;;;;;;;;;;;;;8.14;37.06;101468.25;5052656;28;19917;-73
2023/02/28 09:26:48;;;;;;;;;;;;;;;8.23;37.09;101469.28;5057050;28;19913;-73
2023/02/28 09:29:40;;;;;;;;;;;;;;;8.25;37.56;101471.72;5058191;28;19912;-73
2023/02/28 09:32:32;;;;;;;;;;;;;;;8.32;36.83;101477.69;5053990;28;19917;-74
2023/02/28 09:35:24;;;;;;;;;;;;;;;8.45;37.26;101468.91;5057967;28;19913;-74
2023/02/28 09:38:16;;;;;;;;;;;;;;;8.57;37.36;101467.47;5055540;28;19913;-74
2023/02/28 09:41:11;;;;;;;;;;;;;;;8.19;37.70;101462.81;5053796;28;19920;-74
2023/02/28 09:44:02;;;;;;;;;;;;;;;8.09;37.41;101466.41;5053586;28;19921;-73
2023/02/28 09:46:56;;;;;;;;;;;;;;;8.04;37.30;101471.03;5053549;28;20384;-76
2023/02/28 09:49:47;;;;;;;;;;;;;;;8.47;37.38;101464.03;5058442;28;19912;-74
2023/02/28 09:52:39;;;;;;;;;;;;;;;8.52;36.49;101469.41;5055221;28;20380;-74
2023/02/28 09:55:34;;;;;;;;;;;;;;;8.00;36.88;101464.56;5053883;28;19913;-73
2023/02/28 09:58:29;;;;;;;;;;;;;;;8.39;36.64;101468.13;5057289;28;19912;-73
2023/02/28 10:01:37;;;;;;;;;;;;;;;8.71;35.87;101467.63;5052037;28;19912;-73
2023/02/28 10:04:36;;;;;;;;;;;;;;;8.59;35.41;101462.56;5046678;28;20311;-72
2023/02/28 10:07:36;;;;;;;;;;;;;;;8.73;35.82;101465.44;5047346;28;19924;-72
2023/02/28 10:10:28;;;;;;;;;;;;;;;8.83;35.29;101473.50;5037137;28;19913;-71
2023/02/28 10:13:27;;;;;;;;;;;;;;;9.05;35.33;101467.56;5031883;28;20384;-72
2023/02/28 10:16:22;;;;;;;;;;;;;;;8.89;34.84;101466.91;5032306;28;19913;-72
2023/02/28 10:19:40;;;;;;;;;;;;;;;9.01;35.08;101463.81;5048973;28;19912;-72
2023/02/28 10:22:35;;;;;;;;;;;;;;;9.13;34.90;101456.13;5048932;28;19913;-72
2023/02/28 10:25:27;;;;;;;;;;;;;;;8.90;35.25;101456.88;5050063;28;19913;-72
2023/02/28 10:28:19;;;;;;;;;;;;;;;9.08;35.22;101458.88;5047601;28;19912;-72
2023/02/28 10:31:13;;;;;;;;;;;;;;;9.37;34.88;101459.63;5057022;28;19913;-72
2023/02/28 10:34:05;;;;;;;;;;;;;;;9.33;34.98;101450.47;5055173;28;19932;-72
2023/02/28 10:36:58;;;;;;;;;;;;;;;9.47;35.60;101460.63;5053119;28;19932;-71
2023/02/28 10:39:49;;;;;;;;;;;;;;;9.44;35.09;101451.97;5056572;28;19913;-72
2023/02/28 10:42:42;;;;;;;;;;;;;;;9.43;34.75;101454.97;5053993;28;19913;-72
2023/02/28 10:45:35;;;;;;;;;;;;;;;9.67;34.22;101444.06;5051926;28;19912;-72
2023/02/28 10:48:31;;;;;;;;;;;;;;;9.77;34.84;101450.19;5053029;28;19913;-72
2023/02/28 10:51:21;;;;;;;;;;;;;;;9.87;34.02;101449.25;5053156;28;19913;-72
2023/02/28 10:54:37;;;;;;;;;;;;;;;9.72;33.84;101444.81;5057413;28;20355;-72
2023/02/28 10:57:32;;;;;;;;;;;;;;;9.54;34.10;101433.94;5053811;28;19913;-72
2023/02/28 11:00:25;;;;;;;;;;;;;;;9.67;33.38;101433.22;5050195;28;19920;-72
2023/02/28 11:03:30;;;;;;;;;;;;;;;9.64;34.32;101428.38;5048114;28;20368;-73
2023/02/28 11:06:22;;;;;;;;;;;;;;;9.89;34.16;101430.75;5051509;28;19913;-73
2023/02/28 11:09:20;;;;;;;;;;;;;;;10.17;33.38;101431.72;5051201;28;19913;-72
2023/02/28 11:12:21;;;;;;;;;;;;;;;10.02;33.85;101421.84;5047346;28;19920;-73
2023/02/28 11:15:23;;;;;;;;;;;;;;;10.52;33.40;101424.91;5060088;28;19912;-73
2023/02/28 11:18:30;;;;;;;;;;;;;;;10.71;32.37;101421.06;5054697;28;19917;-73
2023/02/28 11:21:26;;;;;;;;;;;;;;;10.57;32.76;101422.94;5053817;28;19916;-73
2023/02/28 11:24:26;;;;;;;;;;;;;;;10.53;32.69;101423.81;5054291;28;19912;-73
2023/02/28 11:27:34;;;;;;;;;;;;;;;10.51;33.43;101415.16;5047412;28;19913;-73
2023/02/28 11:30:29;;;;;;;;;;;;;;;10.79;32.95;101405.16;5046509;28;19913;-73
2023/02/28 11:33:28;;;;;;;;;;;;;;;10.44;33.55;101403.84;5047702;28;19924;-73
2023/02/28 11:36:30;;;;;;;;;;;;;;;10.54;33.01;101392.81;5047522;28;19912;-73
2023/02/28 11:39:23;;;;;;;;;;;;;;;10.92;33.00;101391.56;5035895;28;19912;-73
2023/02/28 11:42:18;;;;;;;;;;;;;;;11.28;32.31;101388.16;5044932;28;19917;-73
2023/02/28 11:45:15;;;;;;;;;;;;;;;11.01;31.62;101384.34;5049791;28;19928;-72
2023/02/28 11:48:33;;;;;;;;;;;;;;;11.43;31.97;101377.75;5052723;28;19913;-73
2023/02/28 11:51:30;;;;;;;;;;;;;;;11.66;31.84;101381.34;5044322;28;19913;-73
2023/02/28 11:54:35;;;;;;;;;;;;;;;11.97;30.20;101381.50;5050436;28;20322;-72
2023/02/28 11:57:49;;;;;;;;;;;;;;;11.84;30.67;101377.69;5058631;28;19912;-72
2023/02/28 12:00:42;;;;;;;;;;;;;;;12.49;30.18;101360.88;5044553;28;19912;-73
2023/02/28 12:03:34;;;;;;;;;;;;;;;12.67;29.18;101362.56;5046775;28;20376;-72
2023/02/28 12:06:43;;;;;;;;;;;;;;;13.24;28.92;101359.94;5056976;28;19913;-73
2023/02/28 12:09:40;;;;;;;;;;;;;;;13.47;28.10;101355.97;5045414;28;19913;-72
2023/02/28 12:12:48;;;;;;;;;;;;;;;15.01;25.84;101354.19;5051019;28;20376;-72
2023/02/28 12:16:04;;;;;;;;;;;;;;;18.83;21.21;101351.66;5046562;28;19917;-73
2023/02/28 12:19:14;;;;;;;;;;;;;;;20.14;19.72;101344.41;5054472;28;19913;-72
2023/02/28 12:22:30;;;;;;;;;;;;;;;19.79;20.34;101329.91;5038919;28;19913;-73
2023/02/28 12:25:38;;;;;;;;;;;;;;;24.07;16.37;101326.94;5055066;28;20295;-73
2023/02/28 12:28:28;;;;;;;;;;;;;;;29.55;12.31;101343.47;5053046;28;20379;-73
2023/02/28 12:31:22;;;;;;;;;;;;;;;32.13;9.83;101347.56;5055388;28;19913;-73
2023/02/28 12:34:16;;;;;;;;;;;;;;;32.28;9.63;101349.94;5046574;28;19920;-73
2023/02/28 12:37:10;;;;;;;;;;;;;;;23.59;15.17;101329.13;5056563;28;19912;-72
2023/02/28 12:40:05;;;;;;;;;;;;;;;19.86;18.93;101322.53;5053609;28;19912;-74
2023/02/28 12:43:00;;;;;;;;;;;;;;;27.06;13.62;101327.78;5056477;28;19916;-73
2023/02/28 12:45:50;;;;;;;;;;;;;;;31.42;10.67;101331.91;5053772;28;19913;-73
2023/02/28 12:48:42;;;;;;;;;;;;;;;27.35;13.06;101322.69;5051011;28;19913;-73
2023/02/28 12:51:36;;;;;;;;;;;;;;;22.67;16.44;101311.75;5057256;28;19912;-73
2023/02/28 12:54:32;;;;;;;;;;;;;;;24.15;15.96;101316.63;5050937;28;19916;-73
2023/02/28 12:57:29;;;;;;;;;;;;;;;26.49;13.80;101299.50;5060735;28;19913;-73
2023/02/28 13:00:23;;;;;;;;;;;;;;;24.87;14.79;101299.69;5059357;28;19912;-72
2023/02/28 13:03:19;;;;;;;;;;;;;;;22.28;17.28;101299.50;5046361;28;19920;-73
2023/02/28 13:06:15;;;;;;;;;;;;;;;24.18;16.15;101297.22;5056783;28;20375;-73
2023/02/28 13:09:04;;;;;;;;;;;;;;;19.87;19.65;101279.19;5052186;28;20450;-73
2023/02/28 13:11:56;;;;;;;;;;;;;;;23.59;16.76;101286.66;5050972;28;19913;-73
2023/02/28 13:14:48;;;;;;;;;;;;;;;23.00;16.41;101281.16;5051353;28;20655;-72
2023/02/28 13:17:41;;;;;;;;;;;;;;;28.11;12.96;101276.66;5051128;28;19912;-73
2023/02/28 13:20:49;;;;;;;;;;;;;;;25.10;15.32;101277.00;5057581;28;19913;-73
2023/02/28 13:23:58;;;;;;;;;;;;;;;24.00;15.83;101270.53;5047785;28;19912;-74
2023/02/28 13:26:51;;;;;;;;;;;;;;;25.04;15.06;101275.84;5057206;28;19913;-73
2023/02/28 13:29:42;;;;;;;;;;;;;;;25.44;15.28;101277.31;5055303;28;20287;-74
2023/02/28 13:32:32;;;;;;;;;;;;;;;26.03;14.40;101269.91;5052213;28;19916;-73
2023/02/28 13:35:44;;;;;;;;;;;;;;;23.88;17.16;101269.72;5048504;28;19917;-72
2023/02/28 13:38:37;;;;;;;;;;;;;;;24.82;15.11;101265.88;5046826;28;20400;-72
2023/02/28 13:41:43;;;;;;;;;;;;;;;29.46;12.02;101266.78;5052025;28;19912;-72
2023/02/28 13:44:52;;;;;;;;;;;;;;;27.69;12.83;101264.03;5050603;28;19912;-72
2023/02/28 13:47:44;;;;;;;;;;;;;;;31.55;10.03;101272.91;5049868;28;19912;-72
2023/02/28 13:50:39;;;;;;;;;;;;;;;31.71;10.03;101272.84;5054716;28;19913;-72
2023/02/28 13:53:36;;;;;;;;;;;;;;;30.84;10.12;101261.56;5052677;28;19917;-72
2023/02/28 13:56:51;;;;;;;;;;;;;;;31.88;9.86;101268.72;5051300;28;20383;-72
2023/02/28 14:00:01;;;;;;;;;;;;;;;28.48;12.31;101248.53;5052486;28;19938;-73
2023/02/28 14:03:24;;;;;;;;;;;;;;;25.32;14.99;101239.56;5052472;28;19913;-72
2023/02/28 14:06:20;;;;;;;;;;;;;;;23.65;15.93;101243.47;5057636;28;20383;-72
2023/02/28 14:09:31;;;;;;;;;;;;;;;23.02;17.30;101242.72;5055125;28;19913;-72
2023/02/28 14:12:37;;;;;;;;;;;;;;;22.00;17.87;101234.31;5056509;28;19925;-72
2023/02/28 14:15:38;;;;;;;;;;;;;;;25.02;15.79;101239.25;5050280;28;20299;-72
2023/02/28 14:18:33;;;;;;;;;;;;;;;22.79;17.07;101222.75;5052437;28;20375;-72
2023/02/28 14:21:28;;;;;;;;;;;;;;;19.73;20.31;101215.44;5037461;28;20399;-74
2023/02/28 14:24:49;;;;;;;;;;;;;;;17.46;22.37;101209.88;5046167;28;19913;-74
2023/02/28 14:27:44;;;;;;;;;;;;;;;17.90;22.82;101228.06;5047637;28;19912;-74
2023/02/28 14:30:49;;;;;;;;;;;;;;;18.99;21.54;101222.91;5053111;28;19913;-74
2023/02/28 14:33:42;;;;;;;;;;;;;;;17.42;23.77;101214.50;5054795;28;19917;-74
2023/02/28 14:36:34;;;;;;;;;;;;;;;17.34;23.93;101216.22;5057377;28;19943;-74
2023/02/28 14:39:30;;;;;;;;;;;;;;;17.14;24.11;101210.91;5061305;28;20367;-74
2023/02/28 14:42:41;;;;;;;;;;;;;;;17.33;24.20;101203.63;5058714;28;20375;-72
2023/02/28 14:45:37;;;;;;;;;;;;;;;17.49;24.14;101196.22;5056422;28;20295;-72
2023/02/28 14:48:26;;;;;;;;;;;;;;;16.52;25.18;101209.31;5059739;28;19913;-72
2023/02/28 14:51:21;;;;;;;;;;;;;;;17.64;23.95;101196.66;5057225;28;19912;-72
2023/02/28 14:54:16;;;;;;;;;;;;;;;16.53;24.65;101191.72;5060744;28;20291;-72
2023/02/28 14:57:05;;;;;;;;;;;;;;;18.04;23.79;101205.59;5057778;28;19912;-72
2023/02/28 15:00:13;;;;;;;;;;;;;;;19.81;21.79;101197.84;5054346;28;19913;-72
2023/02/28 15:03:18;;;;;;;;;;;;;;;18.14;23.04;101201.53;5057485;28;20384;-72
2023/02/28 15:06:15;;;;;;;;;;;;;;;17.76;23.31;101194.66;5056514;28;19913;-72
2023/02/28 15:09:13;;;;;;;;;;;;;;;16.64;24.54;101182.72;5059721;28;19912;-72